sensor_id;sensor_type;location;lat;lon;timestamp;pressure;altitude;pressure_sealevel;temperature;humidity
66762;BME280;53672;48.176;16.338;2023-01-28T00:04:50;99481.72;;;-1.03;94.49
66762;BME280;53672;48.176;16.338;2023-01-28T00:09:51;99484.97;;;-1.01;93.50
66762;BME280;53672;48.176;16.338;2023-01-28T00:14:52;99498.59;;;-1.04;93.56
66762;BME280;53672;48.176;16.338;2023-01-28T00:19:54;99488.59;;;-1.09;93.93
66762;BME280;53672;48.176;16.338;2023-01-28T00:24:54;99492.88;;;-1.08;94.23
66762;BME280;53672;48.176;16.338;2023-01-28T00:29:55;99495.75;;;-1.03;94.00
66762;BME280;53672;48.176;16.338;2023-01-28T00:34:56;99483.53;;;-1.10;94.51
66762;BME280;53672;48.176;16.338;2023-01-28T00:39:57;99481.09;;;-1.05;94.22
66762;BME280;53672;48.176;16.338;2023-01-28T00:44:57;99476.63;;;-1.05;93.92
66762;BME280;53672;48.176;16.338;2023-01-28T00:49:59;99474.16;;;-1.06;94.86
66762;BME280;53672;48.176;16.338;2023-01-28T00:55:00;99477.44;;;-1.04;94.89
66762;BME280;53672;48.176;16.338;2023-01-28T01:00:00;99476.38;;;-1.10;95.33
66762;BME280;53672;48.176;16.338;2023-01-28T01:05:02;99481.50;;;-1.02;94.32
66762;BME280;53672;48.176;16.338;2023-01-28T01:10:04;99481.31;;;-1.07;95.04
66762;BME280;53672;48.176;16.338;2023-01-28T01:15:06;99486.81;;;-1.02;94.45
66762;BME280;53672;48.176;16.338;2023-01-28T01:20:12;99488.03;;;-1.04;94.70
66762;BME280;53672;48.176;16.338;2023-01-28T01:25:15;99495.97;;;-0.97;93.86
66762;BME280;53672;48.176;16.338;2023-01-28T01:30:16;99495.13;;;-1.05;94.16
66762;BME280;53672;48.176;16.338;2023-01-28T01:35:18;99489.41;;;-1.08;93.89
66762;BME280;53672;48.176;16.338;2023-01-28T01:40:18;99495.53;;;-1.08;94.25
66762;BME280;53672;48.176;16.338;2023-01-28T01:45:19;99502.06;;;-1.04;93.87
66762;BME280;53672;48.176;16.338;2023-01-28T01:50:26;99498.78;;;-1.06;93.69
66762;BME280;53672;48.176;16.338;2023-01-28T01:55:30;99500.84;;;-1.01;93.34
66762;BME280;53672;48.176;16.338;2023-01-28T02:00:33;99496.38;;;-1.00;92.96
66762;BME280;53672;48.176;16.338;2023-01-28T02:05:35;99486.63;;;-1.00;93.26
66762;BME280;53672;48.176;16.338;2023-01-28T02:10:36;99502.28;;;-0.98;92.72
66762;BME280;53672;48.176;16.338;2023-01-28T02:15:37;99489.25;;;-1.00;92.73
66762;BME280;53672;48.176;16.338;2023-01-28T02:20:51;99494.72;;;-1.02;93.43
66762;BME280;53672;48.176;16.338;2023-01-28T02:26:37;99495.97;;;-0.97;93.29
66762;BME280;53672;48.176;16.338;2023-01-28T02:31:50;99498.38;;;-1.03;94.14
66762;BME280;53672;48.176;16.338;2023-01-28T02:36:54;99486.59;;;-1.07;94.30
66762;BME280;53672;48.176;16.338;2023-01-28T02:42:01;99495.59;;;-0.94;92.99
66762;BME280;53672;48.176;16.338;2023-01-28T02:47:08;99492.66;;;-1.06;93.31
66762;BME280;53672;48.176;16.338;2023-01-28T02:52:19;99489.06;;;-0.98;93.38
66762;BME280;53672;48.176;16.338;2023-01-28T02:57:30;99496.13;;;-1.06;93.80
66762;BME280;53672;48.176;16.338;2023-01-28T03:02:39;99500.03;;;-1.02;94.15
66762;BME280;53672;48.176;16.338;2023-01-28T03:07:42;99503.50;;;-1.01;94.78
66762;BME280;53672;48.176;16.338;2023-01-28T03:12:43;99500.03;;;-1.02;95.35
66762;BME280;53672;48.176;16.338;2023-01-28T03:17:48;99498.81;;;-0.99;94.72
66762;BME280;53672;48.176;16.338;2023-01-28T03:22:54;99505.72;;;-1.05;94.78
66762;BME280;53672;48.176;16.338;2023-01-28T03:28:01;99513.25;;;-1.02;95.47
66762;BME280;53672;48.176;16.338;2023-01-28T03:33:05;99507.13;;;-1.09;96.13
66762;BME280;53672;48.176;16.338;2023-01-28T03:38:08;99507.75;;;-1.07;96.76
66762;BME280;53672;48.176;16.338;2023-01-28T03:43:09;99515.09;;;-0.95;96.50
66762;BME280;53672;48.176;16.338;2023-01-28T03:48:11;99515.03;;;-1.09;97.56
66762;BME280;53672;48.176;16.338;2023-01-28T03:53:12;99521.97;;;-1.08;98.50
66762;BME280;53672;48.176;16.338;2023-01-28T03:58:12;99519.34;;;-1.01;98.61
66762;BME280;53672;48.176;16.338;2023-01-28T04:03:16;99521.94;;;-1.14;99.22
66762;BME280;53672;48.176;16.338;2023-01-28T04:08:17;99524.69;;;-1.29;100.00
66762;BME280;53672;48.176;16.338;2023-01-28T04:13:18;99523.53;;;-1.20;100.00
66762;BME280;53672;48.176;16.338;2023-01-28T04:18:20;99520.31;;;-1.15;99.38
66762;BME280;53672;48.176;16.338;2023-01-28T04:23:20;99521.13;;;-1.15;99.23
66762;BME280;53672;48.176;16.338;2023-01-28T04:28:20;99524.81;;;-1.09;98.71
66762;BME280;53672;48.176;16.338;2023-01-28T04:33:22;99518.06;;;-1.18;99.68
66762;BME280;53672;48.176;16.338;2023-01-28T04:38:23;99527.00;;;-1.19;99.94
66762;BME280;53672;48.176;16.338;2023-01-28T04:43:23;99528.81;;;-1.20;100.00
66762;BME280;53672;48.176;16.338;2023-01-28T04:48:25;99529.44;;;-1.18;99.92
66762;BME280;53672;48.176;16.338;2023-01-28T04:53:26;99538.19;;;-1.17;99.80
66762;BME280;53672;48.176;16.338;2023-01-28T04:58:26;99538.59;;;-1.20;100.00
66762;BME280;53672;48.176;16.338;2023-01-28T05:03:28;99544.06;;;-1.22;100.00
66762;BME280;53672;48.176;16.338;2023-01-28T05:08:29;99543.06;;;-1.21;100.00
66762;BME280;53672;48.176;16.338;2023-01-28T05:13:29;99544.69;;;-1.20;100.00
66762;BME280;53672;48.176;16.338;2023-01-28T05:18:31;99546.28;;;-1.25;100.00
66762;BME280;53672;48.176;16.338;2023-01-28T05:23:32;99551.38;;;-1.24;100.00
66762;BME280;53672;48.176;16.338;2023-01-28T05:28:32;99552.00;;;-1.22;100.00
66762;BME280;53672;48.176;16.338;2023-01-28T05:33:34;99561.13;;;-1.24;100.00
66762;BME280;53672;48.176;16.338;2023-01-28T05:38:35;99556.91;;;-1.19;100.00
66762;BME280;53672;48.176;16.338;2023-01-28T05:43:35;99557.28;;;-1.22;100.00
66762;BME280;53672;48.176;16.338;2023-01-28T05:48:37;99554.47;;;-1.20;100.00
66762;BME280;53672;48.176;16.338;2023-01-28T05:53:38;99557.72;;;-1.18;100.00
66762;BME280;53672;48.176;16.338;2023-01-28T05:58:38;99562.56;;;-1.22;100.00
66762;BME280;53672;48.176;16.338;2023-01-28T06:03:40;99562.19;;;-1.19;100.00
66762;BME280;53672;48.176;16.338;2023-01-28T06:08:41;99569.13;;;-1.18;100.00
66762;BME280;53672;48.176;16.338;2023-01-28T06:13:41;99563.81;;;-1.18;100.00
66762;BME280;53672;48.176;16.338;2023-01-28T06:18:43;99576.13;;;-1.04;100.00
66762;BME280;53672;48.176;16.338;2023-01-28T06:23:43;99574.00;;;-1.15;100.00
66762;BME280;53672;48.176;16.338;2023-01-28T06:28:44;99583.97;;;-1.17;100.00
66762;BME280;53672;48.176;16.338;2023-01-28T06:33:46;99584.06;;;-1.04;100.00
66762;BME280;53672;48.176;16.338;2023-01-28T06:38:46;99587.69;;;-1.05;100.00
66762;BME280;53672;48.176;16.338;2023-01-28T06:43:47;99603.81;;;-0.99;100.00
66762;BME280;53672;48.176;16.338;2023-01-28T06:48:49;99607.50;;;-0.94;100.00
66762;BME280;53672;48.176;16.338;2023-01-28T06:53:49;99612.41;;;-0.91;100.00
66762;BME280;53672;48.176;16.338;2023-01-28T06:58:50;99604.47;;;-0.91;99.85
66762;BME280;53672;48.176;16.338;2023-01-28T07:03:52;99609.16;;;-0.93;100.00
66762;BME280;53672;48.176;16.338;2023-01-28T07:08:52;99618.13;;;-0.87;100.00
66762;BME280;53672;48.176;16.338;2023-01-28T07:13:54;99618.94;;;-0.87;100.00
66762;BME280;53672;48.176;16.338;2023-01-28T07:18:56;99614.50;;;-0.80;100.00
66762;BME280;53672;48.176;16.338;2023-01-28T07:23:57;99605.34;;;-0.77;100.00
66762;BME280;53672;48.176;16.338;2023-01-28T07:28:57;99615.38;;;-0.73;100.00
66762;BME280;53672;48.176;16.338;2023-01-28T07:33:59;99607.84;;;-0.69;100.00
66762;BME280;53672;48.176;16.338;2023-01-28T07:39:00;99614.38;;;-0.65;100.00
66762;BME280;53672;48.176;16.338;2023-01-28T07:44:00;99615.00;;;-0.63;100.00
66762;BME280;53672;48.176;16.338;2023-01-28T07:49:02;99618.47;;;-0.63;100.00
66762;BME280;53672;48.176;16.338;2023-01-28T07:54:03;99623.97;;;-0.58;100.00
66762;BME280;53672;48.176;16.338;2023-01-28T07:59:03;99638.66;;;-0.55;100.00
66762;BME280;53672;48.176;16.338;2023-01-28T08:04:05;99636.63;;;-0.53;100.00
66762;BME280;53672;48.176;16.338;2023-01-28T08:09:07;99639.31;;;-0.46;100.00
66762;BME280;53672;48.176;16.338;2023-01-28T08:14:09;99649.47;;;-0.50;100.00
66762;BME280;53672;48.176;16.338;2023-01-28T08:19:10;99656.19;;;-0.47;100.00
66762;BME280;53672;48.176;16.338;2023-01-28T08:24:11;99664.56;;;-0.44;100.00
66762;BME280;53672;48.176;16.338;2023-01-28T08:29:12;99666.06;;;-0.35;100.00
66762;BME280;53672;48.176;16.338;2023-01-28T08:34:13;99681.31;;;-0.30;100.00
66762;BME280;53672;48.176;16.338;2023-01-28T08:39:14;99672.78;;;-0.32;100.00
66762;BME280;53672;48.176;16.338;2023-01-28T08:44:14;99683.41;;;-0.26;100.00
66762;BME280;53672;48.176;16.338;2023-01-28T08:49:16;99683.03;;;-0.16;100.00
66762;BME280;53672;48.176;16.338;2023-01-28T08:54:17;99678.78;;;-0.11;100.00
66762;BME280;53672;48.176;16.338;2023-01-28T08:59:17;99682.03;;;-0.09;100.00
66762;BME280;53672;48.176;16.338;2023-01-28T09:04:19;99688.34;;;-0.10;99.92
66762;BME280;53672;48.176;16.338;2023-01-28T09:09:20;99686.13;;;0.00;100.00
66762;BME280;53672;48.176;16.338;2023-01-28T09:14:20;99688.19;;;-0.02;99.94
66762;BME280;53672;48.176;16.338;2023-01-28T09:19:22;99694.72;;;0.03;99.43
66762;BME280;53672;48.176;16.338;2023-01-28T09:24:23;99694.88;;;-0.06;100.00
66762;BME280;53672;48.176;16.338;2023-01-28T09:29:23;99702.69;;;0.09;100.00
66762;BME280;53672;48.176;16.338;2023-01-28T09:34:25;99702.31;;;0.19;99.36
66762;BME280;53672;48.176;16.338;2023-01-28T09:39:26;99703.75;;;0.28;97.78
66762;BME280;53672;48.176;16.338;2023-01-28T09:44:37;99715.56;;;0.25;97.94
66762;BME280;53672;48.176;16.338;2023-01-28T09:49:48;99711.94;;;0.39;97.30
66762;BME280;53672;48.176;16.338;2023-01-28T09:54:52;99714.84;;;0.58;95.56
66762;BME280;53672;48.176;16.338;2023-01-28T09:59:54;99711.56;;;0.56;95.03
66762;BME280;53672;48.176;16.338;2023-01-28T10:05:02;99706.69;;;0.59;95.63
66762;BME280;53672;48.176;16.338;2023-01-28T10:10:10;99698.13;;;0.70;94.29
66762;BME280;53672;48.176;16.338;2023-01-28T10:15:27;99698.53;;;0.61;94.46
66762;BME280;53672;48.176;16.338;2023-01-28T10:20:37;99688.34;;;0.71;94.23
66762;BME280;53672;48.176;16.338;2023-01-28T10:25:41;99690.59;;;0.74;93.95
66762;BME280;53672;48.176;16.338;2023-01-28T10:30:44;99695.28;;;0.85;93.56
66762;BME280;53672;48.176;16.338;2023-01-28T10:35:48;99689.16;;;0.97;93.43
66762;BME280;53672;48.176;16.338;2023-01-28T10:40:49;99694.47;;;0.97;93.26
66762;BME280;53672;48.176;16.338;2023-01-28T10:45:54;99703.84;;;0.87;93.31
66762;BME280;53672;48.176;16.338;2023-01-28T10:51:00;99701.81;;;0.95;92.94
66762;BME280;53672;48.176;16.338;2023-01-28T10:56:02;99699.97;;;0.89;92.37
66762;BME280;53672;48.176;16.338;2023-01-28T11:01:06;99698.13;;;0.70;94.44
66762;BME280;53672;48.176;16.338;2023-01-28T11:06:22;99699.16;;;0.76;94.64
66762;BME280;53672;48.176;16.338;2023-01-28T11:11:24;99698.88;;;0.38;95.77
66762;BME280;53672;48.176;16.338;2023-01-28T11:16:25;99702.13;;;0.20;97.75
66762;BME280;53672;48.176;16.338;2023-01-28T11:21:28;99697.84;;;0.26;96.46
66762;BME280;53672;48.176;16.338;2023-01-28T11:26:31;99698.03;;;0.24;97.84
66762;BME280;53672;48.176;16.338;2023-01-28T11:31:38;99702.31;;;0.25;98.76
66762;BME280;53672;48.176;16.338;2023-01-28T11:36:49;99707.03;;;0.23;99.21
66762;BME280;53672;48.176;16.338;2023-01-28T11:41:51;99703.81;;;0.41;99.70
66762;BME280;53672;48.176;16.338;2023-01-28T11:47:15;99703.19;;;0.45;98.55
66762;BME280;53672;48.176;16.338;2023-01-28T11:52:26;99704.25;;;0.51;97.25
66762;BME280;53672;48.176;16.338;2023-01-28T11:57:34;99701.19;;;0.54;97.43
66762;BME280;53672;48.176;16.338;2023-01-28T12:02:49;99700.56;;;0.65;97.59
66762;BME280;53672;48.176;16.338;2023-01-28T12:08:01;99700.19;;;0.68;95.40
66762;BME280;53672;48.176;16.338;2023-01-28T12:13:24;99696.91;;;0.73;94.46
66762;BME280;53672;48.176;16.338;2023-01-28T12:18:41;99699.16;;;0.82;93.65
66762;BME280;53672;48.176;16.338;2023-01-28T12:24:07;99697.13;;;0.97;92.25
66762;BME280;53672;48.176;16.338;2023-01-28T12:29:20;99694.28;;;0.92;91.65
66762;BME280;53672;48.176;16.338;2023-01-28T12:34:55;99702.25;;;0.99;91.38
66762;BME280;53672;48.176;16.338;2023-01-28T12:40:20;99695.69;;;1.15;90.88
66762;BME280;53672;48.176;16.338;2023-01-28T12:45:31;99698.94;;;1.03;91.33
66762;BME280;53672;48.176;16.338;2023-01-28T12:50:38;99703.06;;;1.06;91.30
66762;BME280;53672;48.176;16.338;2023-01-28T12:55:45;99709.16;;;1.07;90.25
66762;BME280;53672;48.176;16.338;2023-01-28T13:00:50;99704.66;;;1.00;89.65
66762;BME280;53672;48.176;16.338;2023-01-28T13:05:58;99708.78;;;1.10;89.35
66762;BME280;53672;48.176;16.338;2023-01-28T13:11:03;99705.91;;;1.11;89.41
66762;BME280;53672;48.176;16.338;2023-01-28T13:16:07;99713.25;;;1.02;89.74
66762;BME280;53672;48.176;16.338;2023-01-28T13:21:13;99717.75;;;0.95;90.54
66762;BME280;53672;48.176;16.338;2023-01-28T13:26:30;99715.69;;;0.97;90.24
66762;BME280;53672;48.176;16.338;2023-01-28T13:31:38;99728.75;;;0.86;90.52
66762;BME280;53672;48.176;16.338;2023-01-28T13:36:44;99733.84;;;0.87;90.80
66762;BME280;53672;48.176;16.338;2023-01-28T13:41:47;99735.69;;;0.80;90.76
66762;BME280;53672;48.176;16.338;2023-01-28T13:46:49;99741.59;;;0.82;91.05
66762;BME280;53672;48.176;16.338;2023-01-28T13:51:57;99737.34;;;0.81;91.01
66762;BME280;53672;48.176;16.338;2023-01-28T13:57:38;99735.69;;;0.80;90.53
66762;BME280;53672;48.176;16.338;2023-01-28T14:03:02;99743.22;;;0.77;92.02
66762;BME280;53672;48.176;16.338;2023-01-28T14:14:29;99750.19;;;0.84;91.38
66762;BME280;53672;48.176;16.338;2023-01-28T14:19:33;99753.25;;;0.81;90.81
66762;BME280;53672;48.176;16.338;2023-01-28T14:24:36;99758.56;;;0.81;90.58
66762;BME280;53672;48.176;16.338;2023-01-28T14:29:48;99769.16;;;0.68;91.76
66762;BME280;53672;48.176;16.338;2023-01-28T14:34:51;99764.19;;;0.59;92.32
66762;BME280;53672;48.176;16.338;2023-01-28T14:39:56;99760.69;;;0.45;93.75
66762;BME280;53672;48.176;16.338;2023-01-28T14:45:09;99763.16;;;0.40;94.24
66762;BME280;53672;48.176;16.338;2023-01-28T14:50:24;99761.91;;;0.42;93.10
66762;BME280;53672;48.176;16.338;2023-01-28T14:55:33;99768.44;;;0.40;93.29
66762;BME280;53672;48.176;16.338;2023-01-28T15:00:39;99785.34;;;0.32;93.88
66762;BME280;53672;48.176;16.338;2023-01-28T15:05:39;99782.25;;;0.29;93.71
66762;BME280;53672;48.176;16.338;2023-01-28T15:10:40;99790.78;;;0.24;94.69
66762;BME280;53672;48.176;16.338;2023-01-28T15:15:46;99796.91;;;0.18;95.09
66762;BME280;53672;48.176;16.338;2023-01-28T15:20:50;99803.03;;;0.19;95.69
66762;BME280;53672;48.176;16.338;2023-01-28T15:25:52;99812.59;;;0.13;96.36
66762;BME280;53672;48.176;16.338;2023-01-28T15:30:54;99818.06;;;0.12;96.76
66762;BME280;53672;48.176;16.338;2023-01-28T15:35:56;99828.28;;;0.15;97.15
66762;BME280;53672;48.176;16.338;2023-01-28T15:40:58;99826.81;;;0.06;97.97
66762;BME280;53672;48.176;16.338;2023-01-28T15:46:00;99838.81;;;0.02;98.80
66762;BME280;53672;48.176;16.338;2023-01-28T15:51:04;99845.97;;;0.08;98.76
66762;BME280;53672;48.176;16.338;2023-01-28T15:56:07;99846.75;;;0.02;100.00
66762;BME280;53672;48.176;16.338;2023-01-28T16:01:14;99849.25;;;0.10;99.69
66762;BME280;53672;48.176;16.338;2023-01-28T16:06:17;99849.81;;;0.05;100.00
66762;BME280;53672;48.176;16.338;2023-01-28T16:11:24;99855.38;;;0.10;100.00
66762;BME280;53672;48.176;16.338;2023-01-28T16:16:31;99860.59;;;0.04;100.00
66762;BME280;53672;48.176;16.338;2023-01-28T16:21:34;99863.97;;;0.19;100.00
66762;BME280;53672;48.176;16.338;2023-01-28T16:26:36;99871.75;;;0.20;100.00
66762;BME280;53672;48.176;16.338;2023-01-28T16:31:38;99866.59;;;0.12;100.00
66762;BME280;53672;48.176;16.338;2023-01-28T16:36:38;99873.31;;;0.15;100.00
66762;BME280;53672;48.176;16.338;2023-01-28T16:41:41;99868.88;;;0.22;100.00
66762;BME280;53672;48.176;16.338;2023-01-28T16:46:44;99871.34;;;0.23;100.00
66762;BME280;53672;48.176;16.338;2023-01-28T16:51:45;99885.97;;;0.13;100.00
66762;BME280;53672;48.176;16.338;2023-01-28T16:56:46;99891.47;;;0.18;100.00
66762;BME280;53672;48.176;16.338;2023-01-28T17:01:48;99879.88;;;0.19;99.98
66762;BME280;53672;48.176;16.338;2023-01-28T17:06:49;99890.09;;;0.22;99.94
66762;BME280;53672;48.176;16.338;2023-01-28T17:11:49;99882.38;;;0.27;99.11
66762;BME280;53672;48.176;16.338;2023-01-28T17:16:52;99895.22;;;0.23;98.50
66762;BME280;53672;48.176;16.338;2023-01-28T17:21:53;99891.34;;;0.26;98.47
66762;BME280;53672;48.176;16.338;2023-01-28T17:26:53;99892.13;;;0.20;99.02
66762;BME280;53672;48.176;16.338;2023-01-28T17:31:56;99914.19;;;0.27;98.42
66762;BME280;53672;48.176;16.338;2023-01-28T17:36:57;99911.16;;;0.30;98.01
66762;BME280;53672;48.176;16.338;2023-01-28T17:41:58;99920.78;;;0.37;96.71
66762;BME280;53672;48.176;16.338;2023-01-28T17:47:00;99914.84;;;0.35;97.30
66762;BME280;53672;48.176;16.338;2023-01-28T17:52:01;99926.41;;;0.28;98.42
66762;BME280;53672;48.176;16.338;2023-01-28T17:57:01;99931.38;;;0.37;97.49
66762;BME280;53672;48.176;16.338;2023-01-28T18:02:04;99941.59;;;0.40;96.58
66762;BME280;53672;48.176;16.338;2023-01-28T18:07:06;99949.31;;;0.35;96.45
66762;BME280;53672;48.176;16.338;2023-01-28T18:12:09;99964.63;;;0.40;96.07
66762;BME280;53672;48.176;16.338;2023-01-28T18:17:12;99961.59;;;0.43;95.99
66762;BME280;53672;48.176;16.338;2023-01-28T18:22:13;99962.38;;;0.37;96.64
66762;BME280;53672;48.176;16.338;2023-01-28T18:27:14;99962.81;;;0.40;96.00
66762;BME280;53672;48.176;16.338;2023-01-28T18:32:16;99960.34;;;0.39;95.77
66762;BME280;53672;48.176;16.338;2023-01-28T18:37:16;99964.00;;;0.38;96.36
66762;BME280;53672;48.176;16.338;2023-01-28T18:42:17;99979.47;;;0.34;97.04
66762;BME280;53672;48.176;16.338;2023-01-28T18:47:20;99980.28;;;0.35;95.72
66762;BME280;53672;48.176;16.338;2023-01-28T18:52:21;99976.28;;;0.45;95.08
66762;BME280;53672;48.176;16.338;2023-01-28T18:57:22;99981.97;;;0.42;94.41
66762;BME280;53672;48.176;16.338;2023-01-28T19:02:24;99990.72;;;0.36;95.66
66762;BME280;53672;48.176;16.338;2023-01-28T19:07:25;99992.16;;;0.39;95.84
66762;BME280;53672;48.176;16.338;2023-01-28T19:12:26;100001.94;;;0.38;95.26
66762;BME280;53672;48.176;16.338;2023-01-28T19:17:29;100011.34;;;0.41;95.32
66762;BME280;53672;48.176;16.338;2023-01-28T19:22:30;99992.53;;;0.36;95.98
66762;BME280;53672;48.176;16.338;2023-01-28T19:27:31;100009.06;;;0.38;94.54
66762;BME280;53672;48.176;16.338;2023-01-28T19:32:34;100001.13;;;0.38;95.18
66762;BME280;53672;48.176;16.338;2023-01-28T19:37:34;100016.28;;;0.44;94.86
66762;BME280;53672;48.176;16.338;2023-01-28T19:42:36;100024.78;;;0.39;95.30
66762;BME280;53672;48.176;16.338;2023-01-28T19:47:38;100023.84;;;0.47;94.28
66762;BME280;53672;48.176;16.338;2023-01-28T19:52:39;100026.63;;;0.39;94.37
66762;BME280;53672;48.176;16.338;2023-01-28T19:57:40;100029.44;;;0.31;95.02
66762;BME280;53672;48.176;16.338;2023-01-28T20:02:42;100035.13;;;0.34;94.95
66762;BME280;53672;48.176;16.338;2023-01-28T20:07:43;100037.22;;;0.39;94.91
66762;BME280;53672;48.176;16.338;2023-01-28T20:12:44;100044.34;;;0.38;94.96
66762;BME280;53672;48.176;16.338;2023-01-28T20:17:46;100037.03;;;0.40;93.57
66762;BME280;53672;48.176;16.338;2023-01-28T20:22:47;100041.91;;;0.37;93.74
66762;BME280;53672;48.176;16.338;2023-01-28T20:27:48;100050.03;;;0.35;94.38
66762;BME280;53672;48.176;16.338;2023-01-28T20:32:51;100049.22;;;0.35;93.71
66762;BME280;53672;48.176;16.338;2023-01-28T20:37:52;100049.44;;;0.33;93.29
66762;BME280;53672;48.176;16.338;2023-01-28T20:42:53;100053.13;;;0.39;92.81
66762;BME280;53672;48.176;16.338;2023-01-28T20:47:55;100060.25;;;0.38;91.79
66762;BME280;53672;48.176;16.338;2023-01-28T20:52:56;100068.00;;;0.33;92.87
66762;BME280;53672;48.176;16.338;2023-01-28T20:57:57;100068.00;;;0.33;92.26
66762;BME280;53672;48.176;16.338;2023-01-28T21:02:59;100077.94;;;0.31;92.68
66762;BME280;53672;48.176;16.338;2023-01-28T21:08:00;100075.13;;;0.33;91.85
66762;BME280;53672;48.176;16.338;2023-01-28T21:13:01;100074.28;;;0.32;91.15
66762;BME280;53672;48.176;16.338;2023-01-28T21:18:04;100084.72;;;0.34;91.50
66762;BME280;53672;48.176;16.338;2023-01-28T21:23:04;100075.88;;;0.27;92.41
66762;BME280;53672;48.176;16.338;2023-01-28T21:28:05;100089.97;;;0.27;92.20
66762;BME280;53672;48.176;16.338;2023-01-28T21:33:07;100098.09;;;0.26;92.03
66762;BME280;53672;48.176;16.338;2023-01-28T21:38:08;100097.31;;;0.32;90.31
66762;BME280;53672;48.176;16.338;2023-01-28T21:43:10;100100.91;;;0.24;90.71
66762;BME280;53672;48.176;16.338;2023-01-28T21:48:12;100101.94;;;0.23;90.21
66762;BME280;53672;48.176;16.338;2023-01-28T21:53:13;100112.72;;;0.22;90.08
66762;BME280;53672;48.176;16.338;2023-01-28T21:58:13;100116.75;;;0.18;90.97
66762;BME280;53672;48.176;16.338;2023-01-28T22:03:15;100120.44;;;0.17;91.02
66762;BME280;53672;48.176;16.338;2023-01-28T22:08:16;100122.13;;;0.24;90.34
66762;BME280;53672;48.176;16.338;2023-01-28T22:13:16;100132.50;;;0.19;90.52
66762;BME280;53672;48.176;16.338;2023-01-28T22:18:18;100137.97;;;0.18;90.27
66762;BME280;53672;48.176;16.338;2023-01-28T22:23:19;100128.94;;;0.12;90.69
66762;BME280;53672;48.176;16.338;2023-01-28T22:28:19;100135.47;;;0.10;91.36
66762;BME280;53672;48.176;16.338;2023-01-28T22:33:21;100131.59;;;0.12;90.42
66762;BME280;53672;48.176;16.338;2023-01-28T22:38:21;100130.41;;;0.15;90.68
66762;BME280;53672;48.176;16.338;2023-01-28T22:43:22;100133.88;;;0.15;91.06
66762;BME280;53672;48.176;16.338;2023-01-28T22:48:24;100131.03;;;0.17;90.80
66762;BME280;53672;48.176;16.338;2023-01-28T22:53:24;100130.66;;;0.20;90.36
66762;BME280;53672;48.176;16.338;2023-01-28T22:58:25;100125.91;;;0.15;90.83
66762;BME280;53672;48.176;16.338;2023-01-28T23:03:27;100122.50;;;0.64;97.84
66762;BME280;53672;48.176;16.338;2023-01-28T23:08:28;100126.25;;;1.85;86.99
66762;BME280;53672;48.176;16.338;2023-01-28T23:13:29;100118.91;;;1.33;84.04
66762;BME280;53672;48.176;16.338;2023-01-28T23:18:31;100116.47;;;0.76;85.17
66762;BME280;53672;48.176;16.338;2023-01-28T23:23:32;100113.16;;;0.46;88.60
66762;BME280;53672;48.176;16.338;2023-01-28T23:28:32;100121.84;;;0.34;88.27
66762;BME280;53672;48.176;16.338;2023-01-28T23:33:34;100129.91;;;0.26;88.69
66762;BME280;53672;48.176;16.338;2023-01-28T23:38:35;100131.94;;;0.24;87.61
66762;BME280;53672;48.176;16.338;2023-01-28T23:43:35;100126.75;;;0.16;88.31
66762;BME280;53672;48.176;16.338;2023-01-28T23:48:37;100130.16;;;0.10;88.24
66762;BME280;53672;48.176;16.338;2023-01-28T23:53:38;100123.97;;;0.03;88.29
66762;BME280;53672;48.176;16.338;2023-01-28T23:58:38;100124.50;;;-0.02;89.04
